createdAt,value
2022-08-02T00:00:44.777Z,972.60
2022-08-02T00:01:43.803Z,965.40
2022-08-02T00:02:43.708Z,975.60
2022-08-02T00:03:43.700Z,998.80
2022-08-02T00:04:43.702Z,993.00
2022-08-02T00:05:43.690Z,996.00
2022-08-02T00:06:44.921Z,999.90
2022-08-02T00:07:43.650Z,983.30
2022-08-02T00:08:43.662Z,964.40
2022-08-02T00:09:43.619Z,969.90
2022-08-02T00:10:43.618Z,983.90
2022-08-02T00:11:43.610Z,996.20
2022-08-02T00:12:43.649Z,988.50
2022-08-02T00:13:43.577Z,993.00
2022-08-02T00:14:43.581Z,997.90
2022-08-02T00:15:43.564Z,997.30
2022-08-02T00:16:43.544Z,990.60
2022-08-02T00:17:43.901Z,992.20
2022-08-02T00:18:43.503Z,990.30
2022-08-02T00:19:43.490Z,972.60
2022-08-02T00:20:43.482Z,995.60
2022-08-02T00:21:43.459Z,998.60
2022-08-02T00:22:43.453Z,992.70
2022-08-02T00:23:43.450Z,992.20
2022-08-02T00:24:44.440Z,972.10
2022-08-02T00:25:55.547Z,967.30
2022-08-02T00:26:44.401Z,894.70
2022-08-02T00:27:43.379Z,878.70
2022-08-02T00:28:43.531Z,865.30
2022-08-02T00:29:52.636Z,862.20
2022-08-02T00:30:44.363Z,860.90
2022-08-02T00:31:43.356Z,863.40
2022-08-02T00:32:43.353Z,855.30
2022-08-02T00:34:27.331Z,848.50
2022-08-02T00:34:44.302Z,852.30
2022-08-02T00:35:43.270Z,869.50
2022-08-02T00:36:43.282Z,861.30
2022-08-02T00:37:43.253Z,851.80
2022-08-02T00:38:43.250Z,852.00
2022-08-02T00:39:43.420Z,851.50
2022-08-02T00:40:43.221Z,863.10
2022-08-02T00:41:43.203Z,840.50
2022-08-02T00:42:43.191Z,842.00
2022-08-02T00:43:43.187Z,850.50
2022-08-02T00:44:43.166Z,867.30
2022-08-02T00:46:02.680Z,862.90
2022-08-02T00:46:44.144Z,846.00
2022-08-02T00:47:43.124Z,843.40
2022-08-02T00:48:43.367Z,844.80
2022-08-02T00:49:43.096Z,844.40
2022-08-02T00:50:43.233Z,856.30
2022-08-02T00:51:43.070Z,848.70
2022-08-02T00:52:43.067Z,864.00
2022-08-02T00:53:43.066Z,853.20
2022-08-02T00:54:43.042Z,867.90
2022-08-02T00:55:43.023Z,872.80
2022-08-02T00:56:50.982Z,885.80
2022-08-02T00:57:43.995Z,939.70
2022-08-02T00:58:42.999Z,941.40
2022-08-02T00:59:42.964Z,929.00
2022-08-02T01:00:42.952Z,954.80
2022-08-02T01:01:57.000Z,968.00
2022-08-02T01:02:43.923Z,984.40
2022-08-02T01:03:42.913Z,968.70
2022-08-02T01:04:42.906Z,972.30
2022-08-02T01:05:55.666Z,982.00
2022-08-02T01:06:43.866Z,983.70
2022-08-02T01:07:42.854Z,982.10
2022-08-02T01:08:43.902Z,981.00
2022-08-02T01:09:42.835Z,972.90
2022-08-02T01:10:42.840Z,967.80
2022-08-02T01:11:42.809Z,980.40
2022-08-02T01:12:43.024Z,982.30
2022-08-02T01:13:42.799Z,979.70
2022-08-02T01:14:42.776Z,975.50
2022-08-02T01:15:42.764Z,973.10
2022-08-02T01:16:42.745Z,970.70
2022-08-02T01:17:42.724Z,983.50
2022-08-02T01:18:42.734Z,981.40
2022-08-02T01:19:42.696Z,976.80
2022-08-02T01:20:42.687Z,983.80
2022-08-02T01:21:42.665Z,988.30
2022-08-02T01:23:01.117Z,981.30
2022-08-02T01:23:43.686Z,980.70
2022-08-02T01:24:42.634Z,977.20
2022-08-02T01:25:42.613Z,981.30
2022-08-02T01:26:42.605Z,976.70
2022-08-02T01:27:42.605Z,985.50
2022-08-02T01:28:42.574Z,984.20
2022-08-02T01:29:42.565Z,984.30
2022-08-02T01:30:42.555Z,982.50
2022-08-02T01:31:42.538Z,983.90
2022-08-02T01:32:42.525Z,990.50
2022-08-02T01:33:42.516Z,982.40
2022-08-02T01:34:42.666Z,983.50
2022-08-02T01:35:47.170Z,982.40
2022-08-02T01:36:43.496Z,983.20
2022-08-02T01:37:42.454Z,975.90
2022-08-02T01:38:42.457Z,972.50
2022-08-02T01:39:42.424Z,959.70
2022-08-02T01:40:42.424Z,969.20
2022-08-02T01:41:42.408Z,954.20
2022-08-02T01:42:42.406Z,955.50
2022-08-02T01:43:42.376Z,953.10
2022-08-02T01:44:42.367Z,958.10
2022-08-02T01:45:42.528Z,945.10
2022-08-02T01:46:42.347Z,958.80
2022-08-02T01:47:42.326Z,959.60
2022-08-02T01:48:42.332Z,964.10
2022-08-02T01:49:42.367Z,963.50
2022-08-02T01:50:42.296Z,964.70
2022-08-02T01:51:42.299Z,964.30
2022-08-02T01:52:42.281Z,969.60
2022-08-02T01:53:43.247Z,968.60
2022-08-02T01:54:42.237Z,970.10
2022-08-02T01:55:57.619Z,979.00
2022-08-02T01:56:43.249Z,982.40
2022-08-02T01:57:42.236Z,980.80
2022-08-02T01:58:42.187Z,982.00
2022-08-02T01:59:42.176Z,986.30
2022-08-02T02:00:42.167Z,980.60
2022-08-02T02:01:42.173Z,984.60
2022-08-02T02:02:42.127Z,989.20
2022-08-02T02:03:42.119Z,990.00
2022-08-02T02:04:42.107Z,999.90
2022-08-02T02:05:42.095Z,991.90
2022-08-02T02:06:42.078Z,990.70
2022-08-02T02:07:42.527Z,990.80
2022-08-02T02:08:42.056Z,990.00
2022-08-02T02:09:50.770Z,991.40
2022-08-02T02:10:43.028Z,986.80
2022-08-02T02:12:12.391Z,996.90
2022-08-02T02:12:43.007Z,990.00
2022-08-02T02:13:41.978Z,999.90
2022-08-02T02:14:41.979Z,995.80
2022-08-02T02:15:42.949Z,999.90
2022-08-02T02:16:41.949Z,993.60
2022-08-02T02:18:11.658Z,991.20
2022-08-02T02:18:43.101Z,999.90
2022-08-02T02:19:41.910Z,997.60
2022-08-02T02:20:41.924Z,989.30
2022-08-02T02:21:41.888Z,987.70
2022-08-02T02:22:41.878Z,994.20
2022-08-02T02:23:41.852Z,993.70
2022-08-02T02:24:41.839Z,999.90
2022-08-02T02:25:46.653Z,999.90
2022-08-02T02:26:42.925Z,997.90
2022-08-02T02:27:42.799Z,992.20
2022-08-02T02:28:41.779Z,999.90
2022-08-02T02:29:41.958Z,993.60
2022-08-02T02:30:41.768Z,999.90
2022-08-02T02:31:41.760Z,998.00
2022-08-02T02:32:41.732Z,994.30
2022-08-02T02:33:41.723Z,999.90
2022-08-02T02:34:41.711Z,999.90
2022-08-02T02:35:41.689Z,999.60
2022-08-02T02:36:41.674Z,999.90
2022-08-02T02:37:41.689Z,991.20
2022-08-02T02:38:41.651Z,999.90
2022-08-02T02:39:41.653Z,999.90
2022-08-02T02:40:41.970Z,992.10
2022-08-02T02:41:41.610Z,999.90
2022-08-02T02:42:41.612Z,999.90
2022-08-02T02:43:42.581Z,999.90
2022-08-02T02:44:41.568Z,999.90
2022-08-02T02:45:41.562Z,996.40
2022-08-02T02:46:41.554Z,996.90
2022-08-02T02:47:41.913Z,999.90
2022-08-02T02:48:41.523Z,994.80
2022-08-02T02:49:41.512Z,999.90
2022-08-02T02:50:41.493Z,999.90
2022-08-02T02:51:41.739Z,999.90
2022-08-02T02:52:41.460Z,999.90
2022-08-02T02:54:34.017Z,999.90
2022-08-02T02:54:42.452Z,997.80
2022-08-02T02:55:41.429Z,999.90
2022-08-02T02:56:42.411Z,999.90
2022-08-02T02:57:41.401Z,999.90
2022-08-02T02:58:41.395Z,999.90
2022-08-02T02:59:48.976Z,999.90
2022-08-02T03:00:42.425Z,999.90
2022-08-02T03:01:57.243Z,999.90
2022-08-02T03:02:42.404Z,993.80
2022-08-02T03:03:41.322Z,999.90
2022-08-02T03:04:57.444Z,999.90
2022-08-02T03:05:42.303Z,999.90
2022-08-02T03:06:41.281Z,995.40
2022-08-02T03:07:41.275Z,997.80
2022-08-02T03:08:41.252Z,997.90
2022-08-02T03:09:41.243Z,989.00
2022-08-02T03:10:41.233Z,999.90
2022-08-02T03:11:41.212Z,998.90
2022-08-02T03:12:41.201Z,996.10
2022-08-02T03:13:41.263Z,999.90
2022-08-02T03:14:41.175Z,996.30
2022-08-02T03:15:41.175Z,987.50
2022-08-02T03:16:41.154Z,999.90
2022-08-02T03:17:41.149Z,999.90
2022-08-02T03:18:41.145Z,999.90
2022-08-02T03:19:41.113Z,996.50
2022-08-02T03:20:41.096Z,999.90
2022-08-02T03:21:41.095Z,999.90
2022-08-02T03:22:41.075Z,999.90
2022-08-02T03:23:41.062Z,999.70
2022-08-02T03:24:41.118Z,999.90
2022-08-02T03:25:41.034Z,999.90
2022-08-02T03:26:41.015Z,999.90
2022-08-02T03:27:41.003Z,999.90
2022-08-02T03:28:41.003Z,999.90
2022-08-02T03:29:40.984Z,999.90
2022-08-02T03:30:40.963Z,999.60
2022-08-02T03:31:40.963Z,999.90
2022-08-02T03:32:40.937Z,999.90
2022-08-02T03:33:40.932Z,990.80
2022-08-02T03:34:40.915Z,999.90
2022-08-02T03:35:41.073Z,999.90
2022-08-02T03:36:40.883Z,999.90
2022-08-02T03:37:40.874Z,999.90
2022-08-02T03:38:40.867Z,999.90
2022-08-02T03:39:43.463Z,999.90
2022-08-02T03:40:41.832Z,999.90
2022-08-02T03:41:40.825Z,996.60
2022-08-02T03:42:40.795Z,999.90
2022-08-02T03:43:40.794Z,999.90
2022-08-02T03:44:40.776Z,999.90
2022-08-02T03:45:40.769Z,999.90
2022-08-02T03:46:40.915Z,998.50
2022-08-02T03:47:40.745Z,999.90
2022-08-02T03:48:40.723Z,996.20
2022-08-02T03:49:40.798Z,999.90
2022-08-02T03:50:40.705Z,999.90
2022-08-02T03:51:40.687Z,999.90
2022-08-02T03:52:40.668Z,996.40
2022-08-02T03:53:40.675Z,999.90
2022-08-02T03:54:45.423Z,990.50
2022-08-02T03:55:41.638Z,990.50
2022-08-02T03:56:40.628Z,992.80
2022-08-02T03:57:40.928Z,998.00
2022-08-02T03:58:40.861Z,999.90
2022-08-02T03:59:40.577Z,995.50
2022-08-02T04:00:40.638Z,988.40
2022-08-02T04:01:40.561Z,996.40
2022-08-02T04:02:40.539Z,999.90
2022-08-02T04:03:40.526Z,999.90
2022-08-02T04:04:40.528Z,999.90
2022-08-02T04:06:00.757Z,999.90
2022-08-02T04:06:41.720Z,998.70
2022-08-02T04:08:33.740Z,999.90
2022-08-02T04:08:41.708Z,999.90
2022-08-02T04:09:40.448Z,996.40
2022-08-02T04:10:40.445Z,999.90
2022-08-02T04:11:40.426Z,998.30
2022-08-02T04:12:40.416Z,999.60
2022-08-02T04:13:40.396Z,999.90
2022-08-02T04:14:40.390Z,999.90
2022-08-02T04:15:40.383Z,999.90
2022-08-02T04:16:40.358Z,995.20
2022-08-02T04:17:40.346Z,999.90
2022-08-02T04:18:40.338Z,999.90
2022-08-02T04:19:40.387Z,999.90
2022-08-02T04:20:40.306Z,999.90
2022-08-02T04:21:48.837Z,999.90
2022-08-02T04:22:41.286Z,999.90
2022-08-02T04:23:40.269Z,999.90
2022-08-02T04:24:40.257Z,999.90
2022-08-02T04:25:41.322Z,999.90
2022-08-02T04:26:40.236Z,999.90
2022-08-02T04:27:50.929Z,999.90
2022-08-02T04:28:41.208Z,999.90
2022-08-02T04:29:42.697Z,999.90
2022-08-02T04:30:41.251Z,999.90
2022-08-02T04:31:40.167Z,999.90
2022-08-02T04:32:40.149Z,999.90
2022-08-02T04:33:40.130Z,999.90
2022-08-02T04:34:40.119Z,999.90
2022-08-02T04:35:40.108Z,999.90
2022-08-02T04:36:40.099Z,999.90
2022-08-02T04:38:08.584Z,999.90
2022-08-02T04:38:41.078Z,999.90
2022-08-02T04:39:40.049Z,999.90
2022-08-02T04:40:40.048Z,999.90
2022-08-02T04:41:44.083Z,984.70
2022-08-02T04:42:40.039Z,969.90
2022-08-02T04:43:40.011Z,984.60
2022-08-02T04:44:40.012Z,969.70
2022-08-02T04:45:39.980Z,975.00
2022-08-02T04:46:39.973Z,964.50
2022-08-02T04:48:02.408Z,966.70
2022-08-02T04:48:40.934Z,975.30
2022-08-02T04:49:39.987Z,972.80
2022-08-02T04:50:39.913Z,976.60
2022-08-02T04:51:39.900Z,992.60
2022-08-02T04:52:44.095Z,999.90
2022-08-02T04:53:40.861Z,999.90
2022-08-02T04:54:39.874Z,999.90
2022-08-02T04:55:39.839Z,999.90
2022-08-02T04:56:39.842Z,999.90
2022-08-02T04:57:39.821Z,986.40
2022-08-02T04:58:41.104Z,983.60
2022-08-02T04:59:39.793Z,975.50
2022-08-02T05:00:39.815Z,984.60
2022-08-02T05:01:39.764Z,971.60
2022-08-02T05:02:39.760Z,973.60
2022-08-02T05:03:39.826Z,978.20
2022-08-02T05:04:39.729Z,980.50
2022-08-02T05:05:39.701Z,978.40
2022-08-02T05:06:39.703Z,971.20
2022-08-02T05:07:39.686Z,980.80
2022-08-02T05:08:39.673Z,979.10
2022-08-02T05:09:39.653Z,980.90
2022-08-02T05:10:39.652Z,978.30
2022-08-02T05:11:39.621Z,971.90
2022-08-02T05:12:39.623Z,978.70
2022-08-02T05:13:57.947Z,999.90
2022-08-02T05:14:40.671Z,985.10
2022-08-02T05:15:39.585Z,980.40
2022-08-02T05:16:39.562Z,980.10
2022-08-02T05:17:39.554Z,973.80
2022-08-02T05:18:40.543Z,977.50
2022-08-02T05:19:39.522Z,982.50
2022-08-02T05:20:39.512Z,982.80
2022-08-02T05:21:39.497Z,985.30
2022-08-02T05:22:39.483Z,972.50
2022-08-02T05:23:39.472Z,962.60
2022-08-02T05:24:39.464Z,960.90
2022-08-02T05:25:39.507Z,945.30
2022-08-02T05:26:39.437Z,942.50
2022-08-02T05:27:39.423Z,947.10
2022-08-02T05:28:39.414Z,932.10
2022-08-02T05:29:39.392Z,925.30
2022-08-02T05:30:40.384Z,890.70
2022-08-02T05:31:39.381Z,877.70
2022-08-02T05:32:39.352Z,867.00
2022-08-02T05:33:39.346Z,866.10
2022-08-02T05:34:39.326Z,863.50
2022-08-02T05:35:39.313Z,865.80
2022-08-02T05:36:42.068Z,864.40
2022-08-02T05:37:39.283Z,871.90
2022-08-02T05:38:39.275Z,883.60
2022-08-02T05:39:39.254Z,885.60
2022-08-02T05:40:54.281Z,881.20
2022-08-02T05:41:40.236Z,891.60
2022-08-02T05:42:39.233Z,901.70
2022-08-02T05:43:39.221Z,894.50
2022-08-02T05:44:39.207Z,908.20
2022-08-02T05:45:39.198Z,918.00
2022-08-02T05:46:39.175Z,908.10
2022-08-02T05:47:39.344Z,909.10
2022-08-02T05:48:39.146Z,912.50
2022-08-02T05:49:39.174Z,917.00
2022-08-02T05:50:39.127Z,907.80
2022-08-02T05:51:39.109Z,911.20
2022-08-02T05:52:39.096Z,908.70
2022-08-02T05:53:39.076Z,915.60
2022-08-02T05:54:39.620Z,931.20
2022-08-02T05:55:39.051Z,953.10
2022-08-02T05:56:39.036Z,967.30
2022-08-02T05:57:43.188Z,979.10
2022-08-02T05:58:39.149Z,980.90
2022-08-02T05:59:38.997Z,986.00
2022-08-02T06:00:38.994Z,999.70
2022-08-02T06:01:39.036Z,998.20
2022-08-02T06:02:38.973Z,981.30
2022-08-02T06:03:38.946Z,976.80
2022-08-02T06:04:38.937Z,979.40
2022-08-02T06:05:38.917Z,978.60
2022-08-02T06:06:38.909Z,984.60
2022-08-02T06:07:38.910Z,977.00
2022-08-02T06:08:38.881Z,988.80
2022-08-02T06:09:39.198Z,980.00
2022-08-02T06:10:38.859Z,981.50
2022-08-02T06:11:38.847Z,986.20
2022-08-02T06:12:38.827Z,985.00
2022-08-02T06:13:38.818Z,992.20
2022-08-02T06:14:38.800Z,999.40
2022-08-02T06:15:42.539Z,999.90
2022-08-02T06:16:42.529Z,999.90
2022-08-02T06:17:41.617Z,999.90
2022-08-02T06:18:39.748Z,999.90
2022-08-02T06:19:52.234Z,998.30
2022-08-02T06:20:39.789Z,997.00
2022-08-02T06:22:31.881Z,985.80
2022-08-02T06:22:39.742Z,988.40
2022-08-02T06:23:38.683Z,998.20
2022-08-02T06:24:38.673Z,983.10
2022-08-02T06:25:49.902Z,992.90
2022-08-02T06:26:39.646Z,982.00
2022-08-02T06:27:38.639Z,985.80
2022-08-02T06:28:38.627Z,976.90
2022-08-02T06:29:39.168Z,967.80
2022-08-02T06:30:38.589Z,954.70
2022-08-02T06:31:38.757Z,923.20
2022-08-02T06:32:38.570Z,919.20
2022-08-02T06:33:38.539Z,887.90
2022-08-02T06:34:38.549Z,910.00
2022-08-02T06:35:38.519Z,888.00
2022-08-02T06:36:38.513Z,894.60
2022-08-02T06:37:38.502Z,898.70
2022-08-02T06:38:38.493Z,895.40
2022-08-02T06:39:38.483Z,923.10
2022-08-02T06:40:38.461Z,947.20
2022-08-02T06:41:38.455Z,947.50
2022-08-02T06:42:38.841Z,955.80
2022-08-02T06:43:39.292Z,979.00
2022-08-02T06:44:49.571Z,969.80
2022-08-02T06:45:39.383Z,985.70
2022-08-02T06:47:11.272Z,986.40
2022-08-02T06:47:39.363Z,992.90
2022-08-02T06:48:38.355Z,999.90
2022-08-02T06:49:51.653Z,999.90
2022-08-02T06:50:39.333Z,999.90
2022-08-02T06:51:38.314Z,999.90
2022-08-02T06:52:38.304Z,999.90
2022-08-02T06:53:38.623Z,999.90
2022-08-02T06:54:38.275Z,999.90
2022-08-02T06:55:44.163Z,999.90
2022-08-02T06:56:39.249Z,999.90
2022-08-02T06:57:38.231Z,999.90
2022-08-02T06:58:38.225Z,999.90
2022-08-02T06:59:38.198Z,999.90
2022-08-02T07:00:38.195Z,999.90
2022-08-02T07:01:38.683Z,999.30
2022-08-02T07:02:38.175Z,999.90
2022-08-02T07:03:38.143Z,999.90
2022-08-02T07:04:38.273Z,999.90
2022-08-02T07:05:38.114Z,999.90
2022-08-02T07:06:38.115Z,999.90
2022-08-02T07:07:38.096Z,999.90
2022-08-02T07:08:38.084Z,999.90
2022-08-02T07:09:38.067Z,999.90
2022-08-02T07:10:38.067Z,999.90
2022-08-02T07:11:38.048Z,999.90
2022-08-02T07:12:38.036Z,999.90
2022-08-02T07:13:39.911Z,999.90
2022-08-02T07:14:38.007Z,999.90
2022-08-02T07:15:38.057Z,999.90
2022-08-02T07:16:37.989Z,999.90
2022-08-02T07:17:37.964Z,999.90
2022-08-02T07:18:37.957Z,999.90
2022-08-02T07:19:38.367Z,999.90
2022-08-02T07:20:37.934Z,999.90
2022-08-02T07:21:57.537Z,999.90
2022-08-02T07:22:38.897Z,999.90
2022-08-02T07:23:37.887Z,999.90
2022-08-02T07:24:37.877Z,999.90
2022-08-02T07:26:02.947Z,999.90
2022-08-02T07:27:01.501Z,999.90
2022-08-02T07:27:38.829Z,999.90
2022-08-02T07:28:37.820Z,999.90
2022-08-02T07:29:45.501Z,999.90
2022-08-02T07:30:38.810Z,999.90
2022-08-02T07:31:37.783Z,999.90
2022-08-02T07:32:37.767Z,999.90
2022-08-02T07:33:40.231Z,999.90
2022-08-02T07:34:37.738Z,999.90
2022-08-02T07:35:37.738Z,999.90
2022-08-02T07:36:37.720Z,999.90
2022-08-02T07:37:55.320Z,999.90
2022-08-02T07:38:38.689Z,999.90
2022-08-02T07:39:37.673Z,999.90
2022-08-02T07:40:38.661Z,999.90
2022-08-02T07:41:37.650Z,999.90
2022-08-02T07:42:37.649Z,999.90
2022-08-02T07:43:37.627Z,956.10
2022-08-02T07:44:37.639Z,971.40
2022-08-02T07:45:57.139Z,989.30
2022-08-02T07:46:38.582Z,998.50
2022-08-02T07:47:37.571Z,997.70
2022-08-02T07:48:37.965Z,997.50
2022-08-02T07:49:37.600Z,990.10
2022-08-02T07:50:37.533Z,986.10
2022-08-02T07:51:37.514Z,988.70
2022-08-02T07:52:37.504Z,974.30
2022-08-02T07:53:49.922Z,977.10
2022-08-02T07:54:38.471Z,896.80
2022-08-02T07:55:40.339Z,888.00
2022-08-02T07:56:37.453Z,879.40
2022-08-02T07:57:38.127Z,883.20
2022-08-02T07:58:37.423Z,879.90
2022-08-02T07:59:37.947Z,887.10
2022-08-02T08:00:37.393Z,871.80
2022-08-02T08:01:37.438Z,881.50
2022-08-02T08:02:37.373Z,877.20
2022-08-02T08:03:37.364Z,877.00
2022-08-02T08:04:37.344Z,881.60
2022-08-02T08:05:37.352Z,855.20
2022-08-02T08:06:37.323Z,805.90
2022-08-02T08:07:37.314Z,788.60
2022-08-02T08:08:37.295Z,796.70
2022-08-02T08:09:37.273Z,788.90
2022-08-02T08:10:37.654Z,778.10
2022-08-02T08:11:37.259Z,791.10
2022-08-02T08:12:37.253Z,777.80
2022-08-02T08:13:37.235Z,769.10
2022-08-02T08:14:37.321Z,771.70
2022-08-02T08:15:37.196Z,769.80
2022-08-02T08:16:37.196Z,767.20
2022-08-02T08:17:37.166Z,763.80
2022-08-02T08:18:37.165Z,771.70
2022-08-02T08:19:50.497Z,782.50
2022-08-02T08:20:38.136Z,784.80
2022-08-02T08:21:37.126Z,773.70
2022-08-02T08:22:37.107Z,785.70
2022-08-02T08:23:37.096Z,788.00
2022-08-02T08:24:37.087Z,783.30
2022-08-02T08:25:39.688Z,777.80
2022-08-02T08:26:37.055Z,793.90
2022-08-02T08:27:37.047Z,767.60
2022-08-02T08:28:37.027Z,765.90
2022-08-02T08:29:37.017Z,797.40
2022-08-02T08:30:37.009Z,793.70
2022-08-02T08:31:37.114Z,784.50
2022-08-02T08:32:36.968Z,778.50
2022-08-02T08:33:36.969Z,779.00
2022-08-02T08:34:36.949Z,804.20
2022-08-02T08:35:36.950Z,873.10
2022-08-02T08:36:36.919Z,902.30
2022-08-02T08:37:36.918Z,899.00
2022-08-02T08:38:36.900Z,895.20
2022-08-02T08:39:36.889Z,893.20
2022-08-02T08:40:37.868Z,904.20
2022-08-02T08:41:36.860Z,901.90
2022-08-02T08:42:37.172Z,926.80
2022-08-02T08:43:36.843Z,922.30
2022-08-02T08:44:36.818Z,903.20
2022-08-02T08:45:36.823Z,901.50
2022-08-02T08:46:36.801Z,890.30
2022-08-02T08:47:36.780Z,906.00
2022-08-02T08:48:36.760Z,904.10
2022-08-02T08:49:36.762Z,887.20
2022-08-02T08:50:36.740Z,892.30
2022-08-02T08:51:36.743Z,886.30
2022-08-02T08:52:36.729Z,888.00
2022-08-02T08:53:37.159Z,893.70
2022-08-02T08:54:36.685Z,894.70
2022-08-02T08:55:36.679Z,888.90
2022-08-02T08:56:36.663Z,894.00
2022-08-02T08:57:36.654Z,933.60
2022-08-02T08:58:36.640Z,906.00
2022-08-02T08:59:39.251Z,917.20
2022-08-02T09:00:36.649Z,904.00
2022-08-02T09:01:50.191Z,899.00
2022-08-02T09:02:37.599Z,917.90
2022-08-02T09:03:36.575Z,920.90
2022-08-02T09:04:36.733Z,934.70
2022-08-02T09:05:36.556Z,947.50
2022-08-02T09:06:36.542Z,951.50
2022-08-02T09:07:36.525Z,954.40
2022-08-02T09:08:36.511Z,948.60
2022-08-02T09:09:36.497Z,951.90
2022-08-02T09:10:36.477Z,963.90
2022-08-02T09:11:36.486Z,952.20
2022-08-02T09:12:36.453Z,953.60
2022-08-02T09:13:45.072Z,946.20
2022-08-02T09:14:37.516Z,905.50
2022-08-02T09:15:36.431Z,911.80
2022-08-02T09:16:36.419Z,878.20
2022-08-02T09:17:36.398Z,883.10
2022-08-02T09:18:36.377Z,863.30
2022-08-02T09:19:36.374Z,817.60
2022-08-02T09:20:36.349Z,824.80
2022-08-02T09:21:36.343Z,822.20
2022-08-02T09:22:36.320Z,821.10
2022-08-02T09:23:36.317Z,826.70
2022-08-02T09:24:36.296Z,819.20
2022-08-02T09:25:36.358Z,822.60
2022-08-02T09:26:36.272Z,818.40
2022-08-02T09:27:36.260Z,826.90
2022-08-02T09:28:36.248Z,820.40
2022-08-02T09:29:48.617Z,827.00
2022-08-02T09:30:37.209Z,829.50
2022-08-02T09:31:36.209Z,830.60
2022-08-02T09:32:36.194Z,826.30
2022-08-02T09:33:36.183Z,827.90
2022-08-02T09:34:36.161Z,818.10
2022-08-02T09:36:05.837Z,829.70
2022-08-02T09:36:37.228Z,826.40
2022-08-02T09:37:36.134Z,822.70
2022-08-02T09:38:36.114Z,835.00
2022-08-02T09:39:36.100Z,826.60
2022-08-02T09:40:37.093Z,842.10
2022-08-02T09:41:36.072Z,843.30
2022-08-02T09:42:36.053Z,869.40
2022-08-02T09:43:36.055Z,875.40
2022-08-02T09:44:36.034Z,864.90
2022-08-02T09:45:36.025Z,857.30
2022-08-02T09:46:36.004Z,823.10
2022-08-02T09:47:37.553Z,816.80
2022-08-02T09:48:35.981Z,820.40
2022-08-02T09:49:36.030Z,834.20
2022-08-02T09:50:35.945Z,828.20
2022-08-02T09:51:35.946Z,831.60
2022-08-02T09:52:43.126Z,838.00
2022-08-02T09:53:36.932Z,833.60
2022-08-02T09:54:35.903Z,780.20
2022-08-02T09:55:35.894Z,771.10
2022-08-02T09:56:36.103Z,774.10
2022-08-02T09:57:35.870Z,786.90
2022-08-02T09:58:36.045Z,809.20
2022-08-02T09:59:35.837Z,822.10
2022-08-02T10:00:51.890Z,837.20
2022-08-02T10:01:36.986Z,874.40
2022-08-02T10:02:35.878Z,893.10
2022-08-02T10:03:37.245Z,894.00
2022-08-02T10:04:52.860Z,887.90
2022-08-02T10:05:42.905Z,870.70
2022-08-02T10:06:36.748Z,876.20
2022-08-02T10:07:35.737Z,868.30
2022-08-02T10:08:35.717Z,851.30
2022-08-02T10:09:40.158Z,833.40
2022-08-02T10:10:36.697Z,811.70
2022-08-02T10:11:35.678Z,811.00
2022-08-02T10:12:35.675Z,811.60
2022-08-02T10:13:35.668Z,804.60
2022-08-02T10:14:35.641Z,776.70
2022-08-02T10:15:35.637Z,736.90
2022-08-02T10:16:35.620Z,742.90
2022-08-02T10:17:35.614Z,731.50
2022-08-02T10:18:39.440Z,727.40
2022-08-02T10:20:02.600Z,717.30
2022-08-02T10:20:36.562Z,692.20
2022-08-02T10:21:35.566Z,721.60
2022-08-02T10:22:35.550Z,703.70
2022-08-02T10:23:35.571Z,718.40
2022-08-02T10:24:35.521Z,747.80
2022-08-02T10:25:35.552Z,737.20
2022-08-02T10:26:35.534Z,714.90
2022-08-02T10:27:55.465Z,682.50
2022-08-02T10:28:36.463Z,708.00
2022-08-02T10:29:43.949Z,696.20
2022-08-02T10:30:36.583Z,693.10
2022-08-02T10:31:35.455Z,718.40
2022-08-02T10:32:35.433Z,707.70
2022-08-02T10:33:35.412Z,713.40
2022-08-02T10:34:35.403Z,705.80
2022-08-02T10:35:35.396Z,692.50
2022-08-02T10:36:35.377Z,728.20
2022-08-02T10:37:35.366Z,713.60
2022-08-02T10:38:35.346Z,712.30
2022-08-02T10:39:35.346Z,721.00
2022-08-02T10:40:35.338Z,719.60
2022-08-02T10:41:35.488Z,685.30
2022-08-02T10:42:35.296Z,629.00
2022-08-02T10:43:35.286Z,679.60
2022-08-02T10:44:35.278Z,687.10
2022-08-02T10:45:35.310Z,701.30
2022-08-02T10:46:35.258Z,695.60
2022-08-02T10:47:35.249Z,694.60
2022-08-02T10:48:35.231Z,685.30
2022-08-02T10:49:40.118Z,691.10
2022-08-02T10:50:36.208Z,710.30
2022-08-02T10:51:35.256Z,708.70
2022-08-02T10:52:35.283Z,708.80
2022-08-02T10:53:35.169Z,690.60
2022-08-02T10:54:35.160Z,661.90
2022-08-02T10:55:35.169Z,687.60
2022-08-02T10:56:35.131Z,696.30
2022-08-02T10:57:35.147Z,676.90
2022-08-02T10:58:35.112Z,731.00
2022-08-02T10:59:35.101Z,797.40
2022-08-02T11:00:35.122Z,803.80
2022-08-02T11:01:38.969Z,781.10
2022-08-02T11:02:35.052Z,763.90
2022-08-02T11:03:39.612Z,776.80
2022-08-02T11:04:35.033Z,784.20
2022-08-02T11:05:43.284Z,773.00
2022-08-02T11:06:36.005Z,791.50
2022-08-02T11:07:35.012Z,765.30
2022-08-02T11:08:34.985Z,756.50
2022-08-02T11:09:34.987Z,760.60
2022-08-02T11:10:34.956Z,733.30
2022-08-02T11:11:54.277Z,731.00
2022-08-02T11:12:35.955Z,603.00
2022-08-02T11:13:34.945Z,526.10
2022-08-02T11:14:34.977Z,495.20
2022-08-02T11:15:34.911Z,514.30
2022-08-02T11:16:34.889Z,547.30
2022-08-02T11:17:38.270Z,540.90
2022-08-02T11:18:35.878Z,566.60
2022-08-02T11:19:34.870Z,550.10
2022-08-02T11:20:34.848Z,539.40
2022-08-02T11:21:34.839Z,501.20
2022-08-02T11:22:34.820Z,501.80
2022-08-02T11:23:45.150Z,532.90
2022-08-02T11:24:35.977Z,518.00
2022-08-02T11:26:02.132Z,558.80
2022-08-02T11:26:35.771Z,561.40
2022-08-02T11:27:34.771Z,546.80
2022-08-02T11:28:34.752Z,539.40
2022-08-02T11:29:38.466Z,560.50
2022-08-02T11:30:34.721Z,576.30
2022-08-02T11:31:34.712Z,605.10
2022-08-02T11:32:34.718Z,560.20
2022-08-02T11:33:34.692Z,568.70
2022-08-02T11:34:37.481Z,553.50
2022-08-02T11:35:34.974Z,582.50
2022-08-02T11:36:34.644Z,599.30
2022-08-02T11:37:34.662Z,565.50
2022-08-02T11:38:34.624Z,614.80
2022-08-02T11:39:34.625Z,596.00
2022-08-02T11:40:35.466Z,650.10
2022-08-02T11:41:46.098Z,630.20
2022-08-02T11:42:35.594Z,618.00
2022-08-02T11:43:34.565Z,644.00
2022-08-02T11:44:34.576Z,650.90
2022-08-02T11:45:34.546Z,668.40
2022-08-02T11:46:34.606Z,681.90
2022-08-02T11:47:34.537Z,664.90
2022-08-02T11:48:34.506Z,688.90
2022-08-02T11:49:34.574Z,678.00
2022-08-02T11:50:34.498Z,683.90
2022-08-02T11:51:34.477Z,710.40
2022-08-02T11:52:34.468Z,724.10
2022-08-02T11:53:34.467Z,688.70
2022-08-02T11:54:35.339Z,710.60
2022-08-02T11:55:34.438Z,511.20
2022-08-02T11:56:34.413Z,513.30
2022-08-02T11:58:03.249Z,556.00
2022-08-02T11:58:35.392Z,547.80
2022-08-02T11:59:34.379Z,520.30
2022-08-02T12:00:34.373Z,574.20
2022-08-02T12:01:36.941Z,558.00
2022-08-02T12:02:35.340Z,506.60
2022-08-02T12:03:34.448Z,522.10
2022-08-02T12:04:34.312Z,505.40
2022-08-02T12:06:35.296Z,547.90
2022-08-02T12:07:36.057Z,560.00
2022-08-02T12:08:35.155Z,525.90
2022-08-02T12:09:36.938Z,517.50
2022-08-02T12:10:35.234Z,500.60
2022-08-02T12:11:39.034Z,497.80
2022-08-02T12:12:35.214Z,546.10
2022-08-02T12:13:34.217Z,543.80
2022-08-02T12:14:34.201Z,538.70
2022-08-02T12:15:34.190Z,523.20
2022-08-02T12:16:34.180Z,495.20
2022-08-02T12:17:34.166Z,515.60
2022-08-02T12:18:34.144Z,517.60
2022-08-02T12:19:34.550Z,510.40
2022-08-02T12:20:34.117Z,482.60
2022-08-02T12:21:34.112Z,460.70
2022-08-02T12:22:36.722Z,530.40
2022-08-02T12:23:34.127Z,532.80
2022-08-02T12:24:34.066Z,528.10
2022-08-02T12:25:35.345Z,539.80
2022-08-02T12:26:34.049Z,554.90
2022-08-02T12:27:34.030Z,566.60
2022-08-02T12:28:34.030Z,568.40
2022-08-02T12:29:58.511Z,540.30